createdAt,value
2019-04-04T00:00:04.660Z,6
2019-04-04T00:01:02.445Z,6
2019-04-04T00:02:01.666Z,6
2019-04-04T00:03:01.885Z,6
2019-04-04T00:04:02.041Z,6
2019-04-04T00:05:02.338Z,2
2019-04-04T00:06:02.681Z,6
2019-04-04T00:07:01.810Z,6
2019-04-04T00:08:01.992Z,6
2019-04-04T00:09:03.018Z,6
2019-04-04T00:10:04.841Z,6
2019-04-04T00:11:01.765Z,2
2019-04-04T00:12:01.991Z,3
2019-04-04T00:13:02.218Z,3
2019-04-04T00:14:02.384Z,3
2019-04-04T00:15:01.631Z,3
2019-04-04T00:16:01.863Z,3
2019-04-04T00:17:02.118Z,5
2019-04-04T00:18:02.300Z,6
2019-04-04T00:19:02.531Z,6
2019-04-04T00:20:01.846Z,6
2019-04-04T00:21:03.510Z,6
2019-04-04T00:22:05.567Z,6
2019-04-04T00:23:02.428Z,4
2019-04-04T00:24:02.646Z,5
2019-04-04T00:25:01.841Z,5
2019-04-04T00:26:02.125Z,5
2019-04-04T00:27:02.349Z,5
2019-04-04T00:28:02.513Z,5
2019-04-04T00:29:01.873Z,5
2019-04-04T00:30:02.038Z,5
2019-04-04T00:31:02.231Z,5
2019-04-04T00:32:02.435Z,5
2019-04-04T00:33:02.550Z,5
2019-04-04T00:34:01.745Z,5
2019-04-04T00:35:02.084Z,4
2019-04-04T00:36:03.564Z,5
2019-04-04T00:37:05.281Z,5
2019-04-04T00:38:01.687Z,5
2019-04-04T00:39:01.921Z,5
2019-04-04T00:40:02.189Z,5
2019-04-04T00:41:02.373Z,4
2019-04-04T00:42:01.664Z,5
2019-04-04T00:43:01.928Z,5
2019-04-04T00:44:02.135Z,5
2019-04-04T00:45:02.368Z,5
2019-04-04T00:46:02.638Z,5
2019-04-04T00:47:02.518Z,2
2019-04-04T00:48:03.939Z,5
2019-04-04T00:49:05.461Z,5
2019-04-04T00:50:06.931Z,5
2019-04-04T00:51:01.742Z,5
2019-04-04T00:52:02.057Z,5
2019-04-04T00:53:02.210Z,4
2019-04-04T00:54:02.476Z,5
2019-04-04T00:55:01.644Z,5
2019-04-04T00:56:01.893Z,5
2019-04-04T00:57:02.184Z,5
2019-04-04T00:58:02.377Z,5
2019-04-04T00:59:02.627Z,6
2019-04-04T01:00:04.133Z,7
2019-04-04T01:01:01.967Z,7
2019-04-04T01:02:02.227Z,7
2019-04-04T01:03:02.362Z,7
2019-04-04T01:04:02.605Z,7
2019-04-04T01:05:02.567Z,2
2019-04-04T01:06:03.947Z,4
2019-04-04T01:07:05.679Z,4
2019-04-04T01:08:02.414Z,4
2019-04-04T01:09:01.711Z,4
2019-04-04T01:10:01.901Z,4
2019-04-04T01:11:02.056Z,4
2019-04-04T01:12:02.300Z,6
2019-04-04T01:13:02.491Z,6
2019-04-04T01:14:01.816Z,6
2019-04-04T01:15:02.082Z,6
2019-04-04T01:16:03.598Z,6
2019-04-04T01:17:05.009Z,5
2019-04-04T01:18:01.718Z,8
2019-04-04T01:19:02.466Z,8
2019-04-04T01:20:02.657Z,8
2019-04-04T01:21:01.913Z,8
2019-04-04T01:22:02.595Z,8
2019-04-04T01:23:01.777Z,2
2019-04-04T01:24:02.042Z,5
2019-04-04T01:25:02.234Z,5
2019-04-04T01:26:04.318Z,5
2019-04-04T01:27:06.927Z,5
2019-04-04T01:28:01.777Z,5
2019-04-04T01:29:02.066Z,5
2019-04-04T01:30:02.271Z,6
2019-04-04T01:31:02.430Z,6
2019-04-04T01:32:01.740Z,6
2019-04-04T01:33:04.158Z,6
2019-04-04T01:34:02.149Z,6
2019-04-04T01:35:02.358Z,2
2019-04-04T01:36:02.601Z,5
2019-04-04T01:37:01.816Z,5
2019-04-04T01:38:02.043Z,5
2019-04-04T01:39:02.358Z,5
2019-04-04T01:40:03.136Z,5
2019-04-04T01:41:05.154Z,2
2019-04-04T01:42:02.057Z,5
2019-04-04T01:43:02.283Z,5
2019-04-04T01:44:05.765Z,5
2019-04-04T01:45:01.702Z,5
2019-04-04T01:46:01.947Z,5
2019-04-04T01:47:02.169Z,4
2019-04-04T01:48:02.418Z,9
2019-04-04T01:49:02.638Z,9
2019-04-04T01:50:01.957Z,9
2019-04-04T01:51:02.141Z,9
2019-04-04T01:52:02.372Z,9
2019-04-04T01:53:02.627Z,4
2019-04-04T01:54:01.986Z,6
2019-04-04T01:55:04.351Z,6
2019-04-04T01:56:02.281Z,6
2019-04-04T01:57:02.422Z,6
2019-04-04T01:58:01.683Z,6
2019-04-04T01:59:01.884Z,4
2019-04-04T02:00:04.448Z,4
2019-04-04T02:01:02.248Z,4
2019-04-04T02:02:02.458Z,4
2019-04-04T02:03:01.710Z,4
2019-04-04T02:04:01.953Z,4
2019-04-04T02:05:02.231Z,4
2019-04-04T02:06:01.832Z,7
2019-04-04T02:07:02.010Z,7
2019-04-04T02:08:02.308Z,7
2019-04-04T02:09:03.778Z,7
2019-04-04T02:10:05.999Z,7
2019-04-04T02:11:01.914Z,5
2019-04-04T02:12:02.171Z,5
2019-04-04T02:13:02.399Z,5
2019-04-04T02:14:01.674Z,5
2019-04-04T02:15:01.923Z,5
2019-04-04T02:16:02.130Z,5
2019-04-04T02:17:02.295Z,4
2019-04-04T02:18:02.515Z,6
2019-04-04T02:19:01.760Z,6
2019-04-04T02:20:02.063Z,6
2019-04-04T02:21:02.321Z,6
2019-04-04T02:22:02.525Z,6
2019-04-04T02:23:02.230Z,5
2019-04-04T02:24:02.316Z,5
2019-04-04T02:25:04.004Z,5
2019-04-04T02:26:05.837Z,5
2019-04-04T02:27:01.709Z,5
2019-04-04T02:28:02.021Z,5
2019-04-04T02:29:02.261Z,5
2019-04-04T02:30:02.467Z,6
2019-04-04T02:31:01.653Z,6
2019-04-04T02:32:01.940Z,6
2019-04-04T02:33:02.200Z,6
2019-04-04T02:34:06.605Z,6
2019-04-04T02:35:02.574Z,5
2019-04-04T02:36:01.804Z,7
2019-04-04T02:37:02.083Z,7
2019-04-04T02:38:02.378Z,7
2019-04-04T02:39:02.528Z,7
2019-04-04T02:40:01.816Z,7
2019-04-04T02:41:02.006Z,6
2019-04-04T02:42:02.228Z,5
2019-04-04T02:43:02.483Z,5
2019-04-04T02:44:01.743Z,5
2019-04-04T02:45:06.720Z,5
2019-04-04T02:46:02.186Z,5
2019-04-04T02:47:02.407Z,4
2019-04-04T02:48:02.653Z,8
2019-04-04T02:49:01.814Z,8
2019-04-04T02:50:02.638Z,8
2019-04-04T02:51:07.048Z,8
2019-04-04T02:52:02.550Z,8
2019-04-04T02:53:01.890Z,1
2019-04-04T02:54:02.108Z,7
2019-04-04T02:55:02.428Z,7
2019-04-04T02:56:04.021Z,7
2019-04-04T02:57:01.795Z,7
2019-04-04T02:58:02.043Z,7
2019-04-04T02:59:02.382Z,6
2019-04-04T03:00:02.573Z,6
2019-04-04T03:01:01.784Z,6
2019-04-04T03:02:06.229Z,6
2019-04-04T03:03:02.300Z,6
2019-04-04T03:04:02.604Z,6
2019-04-04T03:05:01.846Z,4
2019-04-04T03:06:02.120Z,5
2019-04-04T03:07:02.186Z,5
2019-04-04T03:08:04.821Z,5
2019-04-04T03:09:01.716Z,5
2019-04-04T03:10:01.987Z,5
2019-04-04T03:11:02.185Z,5
2019-04-04T03:12:02.440Z,6
2019-04-04T03:13:01.622Z,6
2019-04-04T03:14:04.964Z,6
2019-04-04T03:15:02.087Z,6
2019-04-04T03:16:02.311Z,6
2019-04-04T03:17:02.537Z,2
2019-04-04T03:18:05.630Z,8
2019-04-04T03:19:02.028Z,8
2019-04-04T03:20:02.379Z,8
2019-04-04T03:21:02.529Z,8
2019-04-04T03:22:01.871Z,8
2019-04-04T03:23:02.046Z,5
2019-04-04T03:24:07.323Z,6
2019-04-04T03:25:02.490Z,6
2019-04-04T03:26:01.747Z,6
2019-04-04T03:27:01.957Z,6
2019-04-04T03:28:02.220Z,6
2019-04-04T03:29:09.854Z,5
2019-04-04T03:30:02.613Z,6
2019-04-04T03:31:04.132Z,6
2019-04-04T03:32:02.128Z,6
2019-04-04T03:33:02.253Z,6
2019-04-04T03:34:12.335Z,6
2019-04-04T03:35:02.108Z,4
2019-04-04T03:36:02.043Z,8
2019-04-04T03:37:07.891Z,8
2019-04-04T03:38:02.558Z,8
2019-04-04T03:39:01.781Z,8
2019-04-04T03:40:01.984Z,8
2019-04-04T03:41:02.199Z,5
2019-04-04T03:42:06.943Z,5
2019-04-04T03:43:02.662Z,5
2019-04-04T03:44:01.878Z,5
2019-04-04T03:45:02.129Z,5
2019-04-04T03:46:02.403Z,5
2019-04-04T03:47:02.615Z,4
2019-04-04T03:48:01.851Z,6
2019-04-04T03:49:02.155Z,6
2019-04-04T03:50:02.432Z,6
2019-04-04T03:51:05.443Z,6
2019-04-04T03:52:01.753Z,6
2019-04-04T03:53:01.962Z,5
2019-04-04T03:54:02.303Z,5
2019-04-04T03:55:02.560Z,5
2019-04-04T03:56:01.957Z,5
2019-04-04T03:57:01.995Z,5
2019-04-04T03:58:02.302Z,5
2019-04-04T03:59:02.483Z,6
2019-04-04T04:00:07.764Z,5
2019-04-04T04:01:01.878Z,5
2019-04-04T04:02:02.060Z,5
2019-04-04T04:03:02.347Z,5
2019-04-04T04:04:02.601Z,5
2019-04-04T04:05:02.513Z,4
2019-04-04T04:06:02.084Z,8
2019-04-04T04:07:02.241Z,8
2019-04-04T04:08:02.479Z,8
2019-04-04T04:09:01.681Z,8
2019-04-04T04:10:02.164Z,8
2019-04-04T04:11:06.188Z,6
2019-04-04T04:12:02.360Z,6
2019-04-04T04:13:02.639Z,6
2019-04-04T04:14:01.799Z,6
2019-04-04T04:15:02.200Z,6
2019-04-04T04:16:04.238Z,6
2019-04-04T04:17:02.617Z,6
2019-04-04T04:18:01.804Z,8
2019-04-04T04:19:02.003Z,8
2019-04-04T04:20:05.215Z,8
2019-04-04T04:21:02.469Z,8
2019-04-04T04:22:01.811Z,8
2019-04-04T04:23:02.009Z,5
2019-04-04T04:24:02.207Z,5
2019-04-04T04:25:03.974Z,5
2019-04-04T04:26:01.645Z,5
2019-04-04T04:27:01.951Z,5
2019-04-04T04:28:03.554Z,5
2019-04-04T04:29:02.321Z,5
2019-04-04T04:30:07.759Z,5
2019-04-04T04:31:01.863Z,5
2019-04-04T04:32:02.099Z,5
2019-04-04T04:33:02.241Z,5
2019-04-04T04:34:02.491Z,5
2019-04-04T04:35:01.777Z,2
2019-04-04T04:36:01.918Z,8
2019-04-04T04:37:02.235Z,8
2019-04-04T04:38:02.398Z,8
2019-04-04T04:39:02.526Z,8
2019-04-04T04:40:02.003Z,8
2019-04-04T04:41:02.006Z,4
2019-04-04T04:42:02.295Z,6
2019-04-04T04:43:02.450Z,6
2019-04-04T04:44:06.499Z,6
2019-04-04T04:45:01.913Z,6
2019-04-04T04:46:02.099Z,6
2019-04-04T04:47:02.333Z,4
2019-04-04T04:48:02.608Z,6
2019-04-04T04:49:04.491Z,6
2019-04-04T04:50:01.968Z,6
2019-04-04T04:51:02.253Z,6
2019-04-04T04:52:02.491Z,6
2019-04-04T04:53:01.755Z,2
2019-04-04T04:54:02.057Z,5
2019-04-04T04:55:02.355Z,5
2019-04-04T04:56:02.537Z,5
2019-04-04T04:57:05.231Z,5
2019-04-04T04:58:02.095Z,5
2019-04-04T04:59:02.231Z,6
2019-04-04T05:00:04.546Z,6
2019-04-04T05:01:02.326Z,6
2019-04-04T05:02:02.522Z,6
2019-04-04T05:03:01.797Z,6
2019-04-04T05:04:03.058Z,6
2019-04-04T05:05:02.264Z,8
2019-04-04T05:06:03.606Z,5
2019-04-04T05:07:01.700Z,5
2019-04-04T05:08:01.974Z,5
2019-04-04T05:09:02.056Z,5
2019-04-04T05:10:02.405Z,5
2019-04-04T05:11:02.435Z,6
2019-04-04T05:12:01.697Z,8
2019-04-04T05:13:01.891Z,8
2019-04-04T05:14:02.130Z,8
2019-04-04T05:15:02.573Z,8
2019-04-04T05:16:08.950Z,8
2019-04-04T05:17:01.786Z,4
2019-04-04T05:18:02.040Z,5
2019-04-04T05:19:02.325Z,5
2019-04-04T05:20:02.631Z,5
2019-04-04T05:21:02.837Z,5
2019-04-04T05:22:01.983Z,5
2019-04-04T05:23:02.138Z,5
2019-04-04T05:24:02.451Z,6
2019-04-04T05:25:09.247Z,6
2019-04-04T05:26:03.563Z,6
2019-04-04T05:27:02.000Z,6
2019-04-04T05:28:02.187Z,6
2019-04-04T05:29:02.440Z,5
2019-04-04T05:30:01.854Z,5
2019-04-04T05:31:01.839Z,5
2019-04-04T05:32:02.128Z,5
2019-04-04T05:33:02.299Z,5
2019-04-04T05:34:02.605Z,5
2019-04-04T05:35:02.373Z,6
2019-04-04T05:36:06.029Z,6
2019-04-04T05:37:02.244Z,6
2019-04-04T05:38:02.453Z,6
2019-04-04T05:39:01.633Z,6
2019-04-04T05:40:01.992Z,6
2019-04-04T05:41:02.190Z,5
2019-04-04T05:42:02.354Z,6
2019-04-04T05:43:05.127Z,6
2019-04-04T05:44:01.740Z,6
2019-04-04T05:45:01.987Z,6
2019-04-04T05:46:02.147Z,6
2019-04-04T05:47:02.432Z,8
2019-04-04T05:48:02.545Z,8
2019-04-04T05:49:08.622Z,8
2019-04-04T05:50:01.989Z,8
2019-04-04T05:51:02.164Z,8
2019-04-04T05:52:02.435Z,8
2019-04-04T05:53:05.141Z,5
2019-04-04T05:54:01.813Z,5
2019-04-04T05:55:02.024Z,5
2019-04-04T05:56:02.257Z,5
2019-04-04T05:57:03.822Z,5
2019-04-04T05:58:01.657Z,5
2019-04-04T05:59:01.853Z,8
2019-04-04T06:00:05.325Z,8
2019-04-04T06:01:02.929Z,8
2019-04-04T06:02:02.363Z,8
2019-04-04T06:03:02.593Z,8
2019-04-04T06:04:04.456Z,8
2019-04-04T06:05:02.062Z,5
2019-04-04T06:06:02.351Z,5
2019-04-04T06:07:05.239Z,5
2019-04-04T06:08:02.613Z,5
2019-04-04T06:09:01.767Z,5
2019-04-04T06:10:02.182Z,5
2019-04-04T06:11:02.381Z,9
2019-04-04T06:12:01.767Z,9
2019-04-04T06:13:01.982Z,9
2019-04-04T06:14:02.165Z,9
2019-04-04T06:15:02.502Z,9
2019-04-04T06:16:04.953Z,9
2019-04-04T06:17:01.893Z,8
2019-04-04T06:18:02.187Z,8
2019-04-04T06:19:02.356Z,8
2019-04-04T06:20:02.611Z,8
2019-04-04T06:21:01.853Z,8
2019-04-04T06:22:02.027Z,8
2019-04-04T06:23:02.236Z,6
2019-04-04T06:24:02.440Z,6
2019-04-04T06:25:02.628Z,6
2019-04-04T06:26:02.122Z,6
2019-04-04T06:27:02.368Z,6
2019-04-04T06:28:02.633Z,6
2019-04-04T06:29:02.005Z,6
2019-04-04T06:30:02.322Z,6
2019-04-04T06:31:02.532Z,6
2019-04-04T06:32:01.761Z,6
2019-04-04T06:33:05.186Z,6
2019-04-04T06:34:02.183Z,6
2019-04-04T06:35:02.454Z,6
2019-04-04T06:36:01.693Z,6
2019-04-04T06:37:01.900Z,6
2019-04-04T06:38:02.136Z,6
2019-04-04T06:39:02.373Z,6
2019-04-04T06:40:02.587Z,6
2019-04-04T06:41:01.842Z,6
2019-04-04T06:42:04.207Z,6
2019-04-04T06:43:10.616Z,6
2019-04-04T06:44:02.439Z,6
2019-04-04T06:45:01.692Z,6
2019-04-04T06:46:01.889Z,6
2019-04-04T06:47:02.549Z,5
2019-04-04T06:48:02.475Z,5
2019-04-04T06:49:05.023Z,5
2019-04-04T06:50:01.996Z,5
2019-04-04T06:51:02.058Z,5
2019-04-04T06:52:02.252Z,5
2019-04-04T06:53:02.548Z,5
2019-04-04T06:54:01.870Z,5
2019-04-04T06:55:02.031Z,5
2019-04-04T06:56:02.210Z,5
2019-04-04T06:57:05.052Z,5
2019-04-04T06:58:01.644Z,5
2019-04-04T06:59:01.972Z,5
2019-04-04T07:00:05.565Z,5
2019-04-04T07:01:02.397Z,5
2019-04-04T07:02:01.663Z,5
2019-04-04T07:03:01.892Z,5
2019-04-04T07:04:02.156Z,5
2019-04-04T07:05:04.134Z,8
2019-04-04T07:06:02.635Z,8
2019-04-04T07:07:01.840Z,8
2019-04-04T07:08:02.060Z,8
2019-04-04T07:09:02.251Z,8
2019-04-04T07:10:02.494Z,8
2019-04-04T07:11:15.451Z,5
2019-04-04T07:12:01.929Z,5
2019-04-04T07:13:26.474Z,5
2019-04-04T07:14:02.420Z,5
2019-04-04T07:15:02.607Z,5
2019-04-04T07:16:08.400Z,5
2019-04-04T07:17:02.522Z,5
2019-04-04T07:18:02.426Z,5
2019-04-04T07:19:02.596Z,5
2019-04-04T07:20:02.195Z,5
2019-04-04T07:21:04.042Z,5
2019-04-04T07:22:02.342Z,5
2019-04-04T07:23:02.579Z,6
2019-04-04T07:24:01.740Z,6
2019-04-04T07:25:06.916Z,6
2019-04-04T07:26:02.203Z,6
2019-04-04T07:27:02.406Z,6
2019-04-04T07:28:01.822Z,6
2019-04-04T07:29:01.990Z,8
2019-04-04T07:30:02.567Z,8
2019-04-04T07:31:02.864Z,8
2019-04-04T07:32:01.794Z,8
2019-04-04T07:33:01.938Z,8
2019-04-04T07:34:02.186Z,8
2019-04-04T07:35:02.384Z,6
2019-04-04T07:36:02.513Z,6
2019-04-04T07:37:01.819Z,6
2019-04-04T07:38:01.855Z,6
2019-04-04T07:39:02.049Z,6
2019-04-04T07:40:04.722Z,6
2019-04-04T07:41:02.364Z,6
2019-04-04T07:42:01.683Z,6
2019-04-04T07:43:01.950Z,6
2019-04-04T07:44:02.140Z,6
2019-04-04T07:45:02.469Z,6
2019-04-04T07:46:17.145Z,6
2019-04-04T07:47:01.801Z,6
2019-04-04T07:48:02.064Z,6
2019-04-04T07:49:02.330Z,6
2019-04-04T07:50:02.601Z,6
2019-04-04T07:51:01.878Z,6
2019-04-04T07:52:02.653Z,6
2019-04-04T07:53:05.447Z,5
2019-04-04T07:54:02.469Z,5
2019-04-04T07:55:01.713Z,5
2019-04-04T07:56:01.971Z,5
2019-04-04T07:57:02.124Z,5
2019-04-04T07:58:02.357Z,5
2019-04-04T07:59:02.552Z,8
2019-04-04T08:00:04.120Z,8
2019-04-04T08:01:02.084Z,8
2019-04-04T08:02:02.217Z,8
2019-04-04T08:03:02.332Z,8
2019-04-04T08:04:02.553Z,8
2019-04-04T08:05:01.703Z,9
2019-04-04T08:06:02.030Z,9
2019-04-04T08:07:02.041Z,9
2019-04-04T08:08:02.233Z,9
2019-04-04T08:09:02.454Z,9
2019-04-04T08:10:02.132Z,9
2019-04-04T08:11:02.330Z,6
2019-04-04T08:12:02.523Z,6
2019-04-04T08:13:01.721Z,6
2019-04-04T08:14:02.027Z,6
2019-04-04T08:15:02.276Z,6
2019-04-04T08:16:02.521Z,6
2019-04-04T08:17:01.648Z,5
2019-04-04T08:18:01.917Z,5
2019-04-04T08:19:02.166Z,5
2019-04-04T08:20:02.371Z,5
2019-04-04T08:21:05.569Z,5
2019-04-04T08:22:02.000Z,5
2019-04-04T08:23:02.214Z,4
2019-04-04T08:24:02.291Z,4
2019-04-04T08:25:02.468Z,4
2019-04-04T08:26:01.883Z,4
2019-04-04T08:27:01.986Z,4
2019-04-04T08:28:02.213Z,4
2019-04-04T08:29:02.380Z,5
2019-04-04T08:30:02.561Z,5
2019-04-04T08:31:02.020Z,5
2019-04-04T08:32:02.110Z,5
2019-04-04T08:33:02.308Z,5
2019-04-04T08:34:02.517Z,5
2019-04-04T08:35:01.637Z,6
2019-04-04T08:36:06.922Z,6
2019-04-04T08:37:02.115Z,6
2019-04-04T08:38:02.309Z,6
2019-04-04T08:39:02.536Z,6
2019-04-04T08:40:01.712Z,6
2019-04-04T08:41:01.978Z,5
2019-04-04T08:42:02.085Z,5
2019-04-04T08:43:02.332Z,5
2019-04-04T08:44:02.539Z,5
2019-04-04T08:45:01.778Z,5
2019-04-04T08:46:02.084Z,5
2019-04-04T08:47:02.204Z,9
2019-04-04T08:48:02.525Z,9
2019-04-04T08:49:01.729Z,9
2019-04-04T08:50:01.928Z,9
2019-04-04T08:51:02.179Z,9
2019-04-04T08:52:02.322Z,9
2019-04-04T08:53:02.632Z,8
2019-04-04T08:54:01.839Z,8
2019-04-04T08:55:02.147Z,8
2019-04-04T08:56:02.277Z,8
2019-04-04T08:57:02.489Z,8
2019-04-04T08:58:01.698Z,8
2019-04-04T08:59:01.948Z,9
2019-04-04T09:00:04.680Z,9
2019-04-04T09:01:02.513Z,9
2019-04-04T09:02:01.662Z,9
2019-04-04T09:03:01.966Z,9
2019-04-04T09:04:02.202Z,9
2019-04-04T09:05:12.905Z,6
2019-04-04T09:06:01.784Z,6
2019-04-04T09:07:01.811Z,6
2019-04-04T09:08:02.084Z,6
2019-04-04T09:09:02.315Z,6
2019-04-04T09:10:02.458Z,6
2019-04-04T09:11:02.560Z,6
2019-04-04T09:12:01.826Z,6
2019-04-04T09:13:02.064Z,6
2019-04-04T09:14:02.257Z,6
2019-04-04T09:15:02.353Z,6
2019-04-04T09:16:02.522Z,6
2019-04-04T09:17:01.850Z,6
2019-04-04T09:18:02.044Z,6
2019-04-04T09:19:02.359Z,6
2019-04-04T09:20:02.545Z,6
2019-04-04T09:21:01.756Z,6
2019-04-04T09:22:01.959Z,6
2019-04-04T09:23:02.166Z,5
2019-04-04T09:24:02.446Z,5
2019-04-04T09:25:02.059Z,5
2019-04-04T09:26:06.639Z,5
2019-04-04T09:27:02.288Z,5
2019-04-04T09:28:02.487Z,5
2019-04-04T09:29:01.749Z,6
2019-04-04T09:30:02.086Z,6
2019-04-04T09:31:02.232Z,6
2019-04-04T09:32:02.456Z,6
2019-04-04T09:33:01.681Z,6
2019-04-04T09:34:01.862Z,6
2019-04-04T09:35:02.156Z,6
2019-04-04T09:36:02.217Z,6
2019-04-04T09:37:02.459Z,6
2019-04-04T09:38:01.684Z,6
2019-04-04T09:39:01.903Z,6
2019-04-04T09:40:02.183Z,6
2019-04-04T09:41:02.421Z,5
2019-04-04T09:42:02.651Z,5
2019-04-04T09:43:01.757Z,5
2019-04-04T09:44:01.904Z,5
2019-04-04T09:45:02.241Z,5
2019-04-04T09:46:02.393Z,5
2019-04-04T09:47:06.138Z,6
2019-04-04T09:48:01.807Z,6
2019-04-04T09:49:01.905Z,6
2019-04-04T09:50:02.185Z,6
2019-04-04T09:51:02.404Z,6
2019-04-04T09:52:02.650Z,6
2019-04-04T09:53:01.881Z,6
2019-04-04T09:54:02.029Z,6
2019-04-04T09:55:02.349Z,6
2019-04-04T09:56:02.803Z,6
2019-04-04T09:57:01.706Z,6
2019-04-04T09:58:02.000Z,6
2019-04-04T09:59:02.148Z,8
2019-04-04T10:00:04.740Z,8
2019-04-04T10:01:02.585Z,8
2019-04-04T10:02:01.830Z,8
2019-04-04T10:03:02.052Z,8
2019-04-04T10:04:02.241Z,8
2019-04-04T10:05:02.545Z,5
2019-04-04T10:06:01.643Z,5
2019-04-04T10:07:01.778Z,5
2019-04-04T10:08:01.973Z,5
2019-04-04T10:09:16.453Z,5
2019-04-04T10:10:02.374Z,5
2019-04-04T10:11:01.594Z,6
2019-04-04T10:12:01.867Z,6
2019-04-04T10:13:02.153Z,6
2019-04-04T10:14:04.525Z,6
2019-04-04T10:15:02.522Z,6
2019-04-04T10:16:01.884Z,6
2019-04-04T10:17:01.953Z,8
2019-04-04T10:18:02.390Z,8
2019-04-04T10:19:02.404Z,8
2019-04-04T10:20:02.660Z,8
2019-04-04T10:21:12.924Z,8
2019-04-04T10:22:01.994Z,8
2019-04-04T10:23:02.241Z,6
2019-04-04T10:24:02.514Z,6
2019-04-04T10:25:01.772Z,6
2019-04-04T10:26:01.916Z,6
2019-04-04T10:27:02.191Z,6
2019-04-04T10:28:02.443Z,6
2019-04-04T10:29:02.678Z,6
2019-04-04T10:30:01.829Z,6
2019-04-04T10:31:01.945Z,6
2019-04-04T10:32:02.138Z,6
2019-04-04T10:33:02.283Z,6
2019-04-04T10:34:02.529Z,6
2019-04-04T10:35:02.304Z,6
2019-04-04T10:36:02.367Z,6
2019-04-04T10:37:01.593Z,6
2019-04-04T10:38:01.827Z,6
2019-04-04T10:39:02.105Z,6
2019-04-04T10:40:02.259Z,6
2019-04-04T10:41:02.385Z,7
2019-04-04T10:42:01.671Z,7
2019-04-04T10:43:01.938Z,7
2019-04-04T10:44:02.235Z,7
2019-04-04T10:45:02.459Z,7
2019-04-04T10:46:02.586Z,7
2019-04-04T10:47:01.800Z,7
2019-04-04T10:48:02.005Z,7
2019-04-04T10:49:02.107Z,7
2019-04-04T10:50:02.325Z,7
2019-04-04T10:51:02.444Z,7
2019-04-04T10:52:02.616Z,7
2019-04-04T10:53:01.922Z,5
2019-04-04T10:54:02.086Z,5
2019-04-04T10:55:02.474Z,5
2019-04-04T10:56:01.643Z,5
2019-04-04T10:57:01.814Z,5
2019-04-04T10:58:02.085Z,5
2019-04-04T10:59:02.202Z,6
2019-04-04T11:00:05.981Z,6
2019-04-04T11:01:01.873Z,6
2019-04-04T11:02:02.098Z,6
2019-04-04T11:03:02.385Z,6
2019-04-04T11:04:02.549Z,6
2019-04-04T11:05:01.659Z,8
2019-04-04T11:06:01.920Z,8
2019-04-04T11:07:02.202Z,8
2019-04-04T11:08:02.509Z,8
2019-04-04T11:09:02.592Z,8
2019-04-04T11:10:01.729Z,8
2019-04-04T11:11:01.848Z,10
2019-04-04T11:12:02.100Z,10
2019-04-04T11:13:03.490Z,10
2019-04-04T11:14:02.455Z,10
2019-04-04T11:15:01.772Z,10
2019-04-04T11:16:01.941Z,10
2019-04-04T11:17:02.112Z,9
2019-04-04T11:18:02.375Z,9
2019-04-04T11:19:02.442Z,9
2019-04-04T11:20:02.676Z,9
2019-04-04T11:21:01.853Z,9
2019-04-04T11:22:02.092Z,9
2019-04-04T11:23:02.734Z,9
2019-04-04T11:24:02.483Z,9
2019-04-04T11:25:02.670Z,9
2019-04-04T11:26:01.926Z,9
2019-04-04T11:27:02.055Z,9
2019-04-04T11:28:02.249Z,9
2019-04-04T11:29:02.461Z,6
2019-04-04T11:30:01.743Z,6
2019-04-04T11:31:01.815Z,6
2019-04-04T11:32:02.114Z,6
2019-04-04T11:33:02.199Z,6
2019-04-04T11:34:02.347Z,6
2019-04-04T11:35:02.553Z,10
2019-04-04T11:36:01.715Z,10
2019-04-04T11:37:01.908Z,10
2019-04-04T11:38:02.057Z,10
2019-04-04T11:39:02.304Z,10
2019-04-04T11:40:02.557Z,7
2019-04-04T11:41:01.714Z,7
2019-04-04T11:42:01.952Z,7
2019-04-04T11:43:02.269Z,7
2019-04-04T11:44:02.498Z,7
2019-04-04T11:45:02.596Z,7
2019-04-04T11:46:01.693Z,7
2019-04-04T11:47:01.887Z,7
2019-04-04T11:48:02.240Z,8
2019-04-04T11:49:02.498Z,8
2019-04-04T11:50:01.733Z,9
2019-04-04T11:51:01.854Z,9
2019-04-04T11:52:02.065Z,9
2019-04-04T11:53:02.239Z,9
2019-04-04T11:54:02.445Z,9
2019-04-04T11:55:01.781Z,3
2019-04-04T11:56:01.938Z,11
2019-04-04T11:57:02.263Z,11
2019-04-04T11:58:02.540Z,11
2019-04-04T11:59:02.585Z,11
2019-04-04T12:00:03.893Z,11
2019-04-04T12:01:01.680Z,8
2019-04-04T12:02:01.902Z,8
2019-04-04T12:03:02.173Z,8
2019-04-04T12:04:02.304Z,8
2019-04-04T12:05:02.649Z,8
2019-04-04T12:06:01.839Z,8
2019-04-04T12:07:01.983Z,10
2019-04-04T12:08:02.167Z,9
2019-04-04T12:09:02.403Z,9
2019-04-04T12:10:08.532Z,9
2019-04-04T12:11:01.788Z,9
2019-04-04T12:12:01.933Z,9
2019-04-04T12:13:02.175Z,6
2019-04-04T12:14:02.299Z,10
2019-04-04T12:15:02.534Z,10
2019-04-04T12:16:01.721Z,10
2019-04-04T12:17:01.999Z,10
2019-04-04T12:18:02.170Z,10
2019-04-04T12:19:02.399Z,10
2019-04-04T12:20:02.611Z,10
2019-04-04T12:21:01.804Z,10
2019-04-04T12:22:01.989Z,10
2019-04-04T12:23:02.163Z,10
2019-04-04T12:24:02.253Z,10
2019-04-04T12:25:02.487Z,6
2019-04-04T12:26:01.715Z,10
2019-04-04T12:27:01.875Z,10
2019-04-04T12:28:02.021Z,10
2019-04-04T12:29:02.219Z,10
2019-04-04T12:30:02.571Z,10
2019-04-04T12:31:01.861Z,6
2019-04-04T12:32:01.977Z,10
2019-04-04T12:33:02.385Z,10
2019-04-04T12:34:02.652Z,10
2019-04-04T12:35:02.651Z,10
2019-04-04T12:36:01.865Z,10
2019-04-04T12:37:02.005Z,7
2019-04-04T12:38:02.278Z,7
2019-04-04T12:39:02.463Z,7
2019-04-04T12:40:01.655Z,7
2019-04-04T12:41:01.869Z,7
2019-04-04T12:42:02.021Z,7
2019-04-04T12:43:02.353Z,5
2019-04-04T12:44:02.487Z,9
2019-04-04T12:45:01.666Z,9
2019-04-04T12:46:01.794Z,9
2019-04-04T12:47:02.001Z,9
2019-04-04T12:48:02.349Z,9
2019-04-04T12:49:01.655Z,5
2019-04-04T12:50:01.782Z,9
2019-04-04T12:51:02.091Z,9
2019-04-04T12:52:02.243Z,9
2019-04-04T12:53:02.230Z,9
2019-04-04T12:54:02.427Z,9
2019-04-04T12:55:02.627Z,7
2019-04-04T12:56:01.703Z,9
2019-04-04T12:57:01.865Z,9
2019-04-04T12:58:01.921Z,9
2019-04-04T12:59:02.203Z,9
2019-04-04T13:00:03.894Z,9
2019-04-04T13:01:01.793Z,6
2019-04-04T13:02:02.646Z,7
2019-04-04T13:03:01.875Z,7
2019-04-04T13:04:02.024Z,7
2019-04-04T13:05:02.355Z,7
2019-04-04T13:06:02.527Z,7
2019-04-04T13:07:01.665Z,6
2019-04-04T13:08:01.938Z,10
2019-04-04T13:09:02.069Z,10
2019-04-04T13:10:12.464Z,10
2019-04-04T13:11:02.588Z,10
2019-04-04T13:12:01.809Z,10
2019-04-04T13:13:02.105Z,6
2019-04-04T13:14:02.245Z,10
2019-04-04T13:15:02.445Z,10
2019-04-04T13:16:02.706Z,10
2019-04-04T13:17:01.841Z,10
2019-04-04T13:18:02.096Z,10
2019-04-04T13:19:02.238Z,6
2019-04-04T13:20:02.486Z,8
2019-04-04T13:21:01.659Z,8
2019-04-04T13:22:01.802Z,8
2019-04-04T13:23:02.162Z,8
2019-04-04T13:24:02.326Z,8
2019-04-04T13:25:02.589Z,6
2019-04-04T13:26:02.590Z,6
2019-04-04T13:27:01.624Z,6
2019-04-04T13:28:01.750Z,6
2019-04-04T13:29:01.995Z,6
2019-04-04T13:30:02.382Z,6
2019-04-04T13:31:02.591Z,5
2019-04-04T13:32:01.726Z,5
2019-04-04T13:33:01.901Z,5
2019-04-04T13:34:02.022Z,5
2019-04-04T13:35:05.988Z,5
2019-04-04T13:36:02.440Z,5
2019-04-04T13:37:02.681Z,5
2019-04-04T13:38:01.794Z,7
2019-04-04T13:39:02.026Z,7
2019-04-04T13:40:02.277Z,7
2019-04-04T13:41:02.494Z,7
2019-04-04T13:42:01.673Z,7
2019-04-04T13:43:01.872Z,6
2019-04-04T13:44:02.041Z,6
2019-04-04T13:45:02.167Z,6
2019-04-04T13:46:02.306Z,6
2019-04-04T13:47:04.134Z,6
2019-04-04T13:48:02.540Z,6
2019-04-04T13:49:01.739Z,5
2019-04-04T13:50:01.990Z,7
2019-04-04T13:51:02.154Z,7
2019-04-04T13:52:02.303Z,7
2019-04-04T13:53:02.556Z,7
2019-04-04T13:54:01.678Z,7
2019-04-04T13:55:01.905Z,6
2019-04-04T13:56:01.952Z,5
2019-04-04T13:57:02.311Z,5
2019-04-04T13:58:02.444Z,5
2019-04-04T13:59:06.125Z,5
2019-04-04T14:00:04.575Z,5
2019-04-04T14:01:02.358Z,5
2019-04-04T14:02:02.536Z,6
2019-04-04T14:03:01.763Z,6
2019-04-04T14:04:02.042Z,6
2019-04-04T14:05:14.159Z,6
2019-04-04T14:06:02.458Z,6
2019-04-04T14:07:03.285Z,6
2019-04-04T14:08:01.765Z,6
2019-04-04T14:09:01.917Z,6
2019-04-04T14:10:02.196Z,6
2019-04-04T14:11:02.280Z,6
2019-04-04T14:12:02.507Z,6
2019-04-04T14:13:01.744Z,3
2019-04-04T14:14:01.901Z,4
2019-04-04T14:15:02.067Z,4
2019-04-04T14:16:02.575Z,4
2019-04-04T14:17:01.761Z,4
2019-04-04T14:18:01.891Z,4
2019-04-04T14:19:02.072Z,5
2019-04-04T14:20:02.229Z,6
2019-04-04T14:21:04.645Z,6
2019-04-04T14:22:02.434Z,6
2019-04-04T14:23:02.554Z,6
2019-04-04T14:24:14.341Z,6
2019-04-04T14:25:01.940Z,5
2019-04-04T14:26:02.071Z,4
2019-04-04T14:27:02.099Z,4
2019-04-04T14:28:02.292Z,4
2019-04-04T14:29:05.024Z,4
2019-04-04T14:30:01.665Z,4
2019-04-04T14:31:01.906Z,3
2019-04-04T14:32:02.078Z,7
2019-04-04T14:33:02.362Z,7
2019-04-04T14:34:02.514Z,7
2019-04-04T14:35:01.833Z,7
2019-04-04T14:36:01.801Z,7
2019-04-04T14:37:01.906Z,3
2019-04-04T14:38:02.090Z,7
2019-04-04T14:39:02.504Z,7
2019-04-04T14:40:02.530Z,7
2019-04-04T14:41:12.086Z,7
2019-04-04T14:42:01.767Z,7
2019-04-04T14:43:01.899Z,4
2019-04-04T14:44:02.143Z,7
2019-04-04T14:45:03.117Z,7